• Join FlightAware (Why Join?)
  • Login
  • US Flag 
09:46PM EST


 

Airport Tracker/Info


-or-


 

Live Flight TrackerFlight Track Log ✈ DAL1116 ✈ 07-Apr-2013 ✈ KLAS - KDTW

Flight Track Log - Related Links

Times and Time Zones

All times are in EDT time to prevent confusion due to time zone crossing. See the DAL1116 flight status page for this flight to view local times or setup timezone preferences in your user account.

Time Position Orientation Groundspeed Altitude Reporting Facility
EDT Latitude Longitude Course Direction KTS MPH feet Rate Location/Type
09:03PM 36.0753 -115.1739 271° West 175 201 3,300  Level Los Angeles Center
09:04PM 36.0767 -115.2406 271° West 202 232 4,800 1,500 Climbing Los Angeles Center
09:04PM 36.0772 -115.2636 272° West 219 252 5,300 2,460 Climbing Los Angeles Center
09:05PM 36.1211 -115.2925 332° Northwest 248 285 7,400 2,760 Climbing Los Angeles Center
09:06PM 36.1761 -115.2469 34° Northeast 260 299 10,200 1,920 Climbing Los Angeles Center
09:07PM 36.1978 -115.1475 75° East 306 352 11,400 1,020 Climbing Los Angeles Center
09:08PM 36.1964 -115.0183 91° East 378 435 12,400 1,560 Climbing Los Angeles Center
09:09PM 36.1981 -114.8775 89° East 407 468 14,700 2,340 Climbing Los Angeles Center
09:10PM 36.1989 -114.6997 90° East 429 494 17,200 2,220 Climbing Los Angeles Center
09:11PM 36.1958 -114.5464 91° East 443 510 19,300 1,620 Climbing Los Angeles Center
09:12PM 36.1933 -114.3881 91° East 458 527 21,000 1,500 Climbing Los Angeles Center
09:13PM 36.1964 -114.1925 89° East 473 544 22,800 1,560 Climbing Los Angeles Center
09:14PM 36.2178 -114.0267 81° East 488 562 24,300 1,320 Climbing Los Angeles Center
09:15PM 36.2389 -113.8572 81° East 496 571 25,600 1,320 Climbing Los Angeles Center
09:16PM 36.2619 -113.6506 82° East 504 580 27,100 1,440 Climbing Los Angeles Center
09:17PM 36.2828 -113.4786 81° East 506 582 28,600 1,200 Climbing Los Angeles Center
09:18PM 36.2975 -113.3419 82° East 502 578 29,600 1,080 Climbing Los Angeles Center
09:19PM 36.3367 -113.1569 75° East 498 573 30,900 660 Climbing Los Angeles Center
09:20PM 36.4042 -112.9756 65° Northeast 485 558 31,000  Climbing Los Angeles Center
09:21PM 36.4594 -112.8236 66° East 484 557 31,000  Level Los Angeles Center
09:22PM 36.5156 -112.6700 66° East 489 563 31,000  Level Los Angeles Center
09:23PM 36.5736 -112.5158 65° Northeast 492 566 31,000  Level Los Angeles Center
09:24PM 36.6289 -112.3628 66° East 490 564 31,000  Level Los Angeles Center
09:25PM 36.6958 -112.1792 66° East 489 563 31,000  Level Los Angeles Center
09:26PM 36.7167 -112.1208 66° East 489 563 31,000  Level Denver Center
09:27PM 36.7728 -111.9664 66° East 491 565 31,000  Level Denver Center
09:28PM 36.8300 -111.8106 65° Northeast 495 570 31,000  Level Denver Center
09:29PM 36.8861 -111.6522 66° East 500 575 31,100  Climbing Denver Center
09:30PM 36.9544 -111.4619 66° East 501 577 31,100 -60 Level Denver Center
09:31PM 37.0072 -111.3075 67° East 495 570 31,000 -60 Descending Denver Center
09:32PM 37.0622 -111.1494 66° East 498 573 31,000  Level Denver Center
09:33PM 37.1169 -110.9919 66° East 496 571 31,000  Level Denver Center
09:34PM 37.1717 -110.8333 67° East 498 573 31,000  Level Denver Center
09:35PM 37.2267 -110.6742 67° East 498 573 31,000  Level Denver Center
09:36PM 37.2925 -110.4844 66° East 496 571 31,000  Level Denver Center
09:37PM 37.3472 -110.3228 67° East 503 579 31,000  Level Denver Center
09:38PM 37.4019 -110.1586 67° East 506 582 31,100  Climbing Denver Center
09:39PM 37.4547 -110.0033 67° East 505 581 31,000 -60 Descending Denver Center
09:40PM 37.5156 -109.8219 67° East 503 579 31,000  Level Denver Center
09:41PM 37.5683 -109.6656 67° East 505 581 31,000  Level Denver Center
09:42PM 37.6283 -109.4819 68° East 507 583 31,000  Level Denver Center
09:43PM 37.6806 -109.3256 67° East 505 581 31,000  Level Denver Center
09:44PM 37.7319 -109.1686 67° East 504 580 31,000  Level Denver Center
09:45PM 37.7922 -108.9839 68° East 508 585 31,000  Level Denver Center
09:47PM 37.8444 -108.8269 67° East 506 582 31,000  Level Denver Center
09:48PM 37.9092 -108.6444 66° East 508 585 31,000  Level Denver Center
09:49PM 37.9644 -108.4869 66° East 509 586 31,000  Level Denver Center
09:50PM 38.0269 -108.3022 67° East 510 587 31,000  Level Denver Center
09:51PM 38.0833 -108.1375 66° East 514 592 31,000  Level Denver Center
09:53PM 38.1992 -107.7950 67° East 510 587 31,100  Climbing Denver Center
09:54PM 38.2525 -107.6389 66° East 506 582 31,000 -60 Descending Denver Center
09:55PM 38.3133 -107.4575 67° East 501 577 31,000  Level Denver Center
09:56PM 38.3661 -107.2989 67° East 506 582 31,000  Level Denver Center
09:57PM 38.4242 -107.1269 67° East 508 585 31,000  Level Denver Center
09:59PM 38.5736 -106.8206 58° Northeast 508 585 31,100  Climbing Denver Center
10:00PM 38.6517 -106.6722 56° Northeast 505 581 31,000 -60 Descending Denver Center
10:01PM 38.7314 -106.5267 55° Northeast 501 577 31,000  Level Denver Center
10:02PM 38.8261 -106.3492 56° Northeast 503 579 31,000  Level Denver Center
10:03PM 38.9014 -106.2081 56° Northeast 505 581 31,000  Level Denver Center
10:04PM 38.9908 -106.0400 56° Northeast 507 583 31,000  Level Denver Center
10:05PM 39.0708 -105.8892 56° Northeast 506 582 31,000  Level Denver Center
10:06PM 39.1508 -105.7386 56° Northeast 504 580 31,000  Level Denver Center
10:07PM 39.2292 -105.5872 56° Northeast 504 580 31,000  Level Denver Center
10:08PM 39.3078 -105.4361 56° Northeast 501 577 31,000  Level Denver Center
10:09PM 39.3875 -105.2844 56° Northeast 502 578 31,000  Level Denver Center
10:10PM 39.4656 -105.1342 56° Northeast 494 568 31,000 -60 Level Denver Center
10:11PM 39.5575 -104.9542 56° Northeast 505 581 30,900  Descending Denver Center
10:12PM 39.6353 -104.8014 56° Northeast 500 575 31,000  Climbing Denver Center
10:13PM 39.7075 -104.6669 55° Northeast 537 618 31,000  Level Denver Center
10:14PM 39.7975 -104.4850 57° Northeast 507 583 31,000  Level Denver Center
10:15PM 39.8767 -104.3272 57° Northeast 506 582 31,000  Level Denver Center
10:16PM 39.9544 -104.1700 57° Northeast 508 585 31,000  Level Denver Center
10:17PM 40.0319 -104.0161 57° Northeast 499 574 31,000  Level Denver Center
10:18PM 40.1086 -103.8622 57° Northeast 500 575 31,000  Level Denver Center
10:20PM 40.1842 -103.7103 57° Northeast 488 562 31,100  Climbing Denver Center
10:21PM 40.2586 -103.5583 57° Northeast 489 563 31,000 -60 Descending Denver Center
10:22PM 40.3344 -103.4036 57° Northeast 498 573 31,000  Level Denver Center
10:23PM 40.4100 -103.2478 57° Northeast 501 577 31,000  Level Denver Center
10:24PM 40.4986 -103.0656 57° Northeast 503 579 31,000  Level Denver Center
10:25PM 40.5753 -102.9075 57° Northeast 507 583 31,000  Level Denver Center
10:26PM 40.6517 -102.7475 58° Northeast 511 588 31,000  Level Denver Center
10:27PM 40.7317 -102.5817 57° Northeast 510 587 31,100  Climbing Denver Center
10:28PM 40.8017 -102.4328 58° Northeast 502 578 31,000 -60 Descending Denver Center
10:29PM 40.8792 -102.2683 58° Northeast 477 549 31,000  Level Denver Center
10:30PM 40.9475 -102.1228 58° Northeast 483 556 31,000  Level Denver Center
10:31PM 41.0158 -101.9778 58° Northeast 484 557 31,000  Level Denver Center
10:32PM 41.0947 -101.8072 58° Northeast 485 558 31,000  Level Denver Center
10:33PM 41.1628 -101.6617 58° Northeast 485 558 31,000  Level Denver Center
10:34PM 41.2417 -101.4889 59° Northeast 487 560 31,000  Level Denver Center
10:35PM 41.3103 -101.3417 58° Northeast 488 562 31,000  Level Denver Center
10:36PM 41.3892 -101.1683 59° Northeast 486 559 31,000  Level Denver Center
10:37PM 41.4553 -101.0200 59° Northeast 485 558 31,000  Level Denver Center
10:38PM 41.5219 -100.8731 59° Northeast 483 556 31,000  Level Denver Center
10:39PM 41.5989 -100.7008 59° Northeast 483 556 31,000  Level Denver Center
10:40PM 41.6658 -100.5522 59° Northeast 486 559 31,100  Climbing Denver Center
10:41PM 41.7406 -100.3825 59° Northeast 476 548 31,000 -60 Descending Denver Center
10:42PM 41.8047 -100.2397 59° Northeast 469 540 31,000  Level Denver Center
10:43PM 41.8772 -100.0717 60° Northeast 466 536 31,000  Level Denver Center
10:44PM 41.9397 -99.9292 59° Northeast 463 533 31,000  Level Denver Center
10:45PM 42.0025 -99.7847 60° Northeast 467 537 31,000  Level Denver Center
10:46PM 42.0772 -99.6133 60° Northeast 469 540 31,000  Level Denver Center
10:47PM 42.1431 -99.4594 60° Northeast 470 541 31,100  Climbing Denver Center
10:48PM 42.2092 -99.3050 60° Northeast 473 544 31,100 -60 Level Denver Center
10:49PM 42.2744 -99.1517 60° Northeast 471 542 31,000 -60 Descending Denver Center
10:50PM 42.3394 -98.9981 60° Northeast 470 541 31,000  Level Denver Center
10:51PM 42.4039 -98.8467 60° Northeast 466 536 31,000  Level Denver Center
10:52PM 42.4611 -98.6900 64° Northeast 463 533 31,000  Level Denver Center
10:54PM 42.4956 -98.5208 75° East 465 535 31,000 240 Level Minneapolis Center
10:55PM 42.5175 -98.3467 80° East 467 537 31,500 960 Climbing Minneapolis Center
10:56PM 42.5472 -98.1364 79° East 472 543 33,000 1,140 Climbing Minneapolis Center
10:57PM 42.5711 -97.9583 80° East 478 550 33,900 840 Climbing Minneapolis Center
10:58PM 42.5953 -97.7786 80° East 478 550 34,800 780 Climbing Minneapolis Center
10:59PM 42.6192 -97.5978 80° East 485 558 35,600 780 Climbing Minneapolis Center
11:00PM 42.6422 -97.4150 80° East 489 563 36,400 660 Climbing Minneapolis Center
11:01PM 42.6658 -97.2322 80° East 490 564 37,000 240 Climbing Minneapolis Center
11:02PM 42.6878 -97.0689 80° East 486 559 37,000  Level Minneapolis Center
11:03PM 42.7144 -96.8497 81° East 491 565 37,000  Level Minneapolis Center
11:04PM 42.7364 -96.6697 81° East 487 560 37,000  Level Minneapolis Center
11:05PM 42.7586 -96.4864 81° East 492 566 37,000  Level Minneapolis Center
11:06PM 42.7803 -96.3053 81° East 489 563 37,000  Level Minneapolis Center
11:07PM 42.8025 -96.1219 81° East 493 567 37,000  Level Minneapolis Center
11:08PM 42.8236 -95.9400 81° East 489 563 37,100  Climbing Minneapolis Center
11:09PM 42.8447 -95.7572 81° East 490 564 37,000 -60 Descending Minneapolis Center
11:10PM 42.8653 -95.5764 81° East 488 562 37,000  Level Minneapolis Center
11:11PM 42.8892 -95.3597 81° East 484 557 37,000  Level Minneapolis Center
11:12PM 42.9092 -95.1778 81° East 487 560 37,000  Level Minneapolis Center
11:13PM 42.9286 -94.9969 82° East 484 557 37,000  Level Minneapolis Center
11:14PM 42.9486 -94.8122 82° East 491 565 37,100  Climbing Minneapolis Center
11:15PM 42.9672 -94.6283 82° East 493 567 37,000 -60 Descending Minneapolis Center
11:16PM 42.9856 -94.4450 82° East 500 575 37,000  Level Minneapolis Center
11:17PM 43.0072 -94.2583 81° East 502 578 37,000  Level Minneapolis Center
11:18PM 43.0231 -94.0711 83° East 501 577 37,000  Level Minneapolis Center
11:19PM 43.0461 -93.8425 82° East 509 586 37,000  Level Minneapolis Center
11:20PM 43.0636 -93.6531 83° East 508 585 37,000  Level Minneapolis Center
11:21PM 43.0825 -93.4647 82° East 506 582 37,000  Level Minneapolis Center
11:22PM 43.0978 -93.2767 84° East 504 580 37,000  Level Minneapolis Center
11:23PM 43.1008 -93.0883 89° East 501 577 37,000  Level Minneapolis Center
11:24PM 43.1044 -92.8969 88° East 505 581 37,000  Level Minneapolis Center
11:25PM 43.1089 -92.7050 88° East 508 585 37,000  Level Minneapolis Center
11:26PM 43.1131 -92.5119 88° East 510 587 37,000  Level Minneapolis Center
11:27PM 43.1169 -92.2825 89° East 507 583 37,000  Level Minneapolis Center
11:28PM 43.1200 -92.0872 89° East 511 588 37,000  Level Minneapolis Center
11:29PM 43.1236 -91.8914 88° East 514 592 37,000  Level Minneapolis Center
11:30PM 43.1258 -91.6947 89° East 515 593 37,000  Level Minneapolis Center
11:31PM 43.1283 -91.4975 89° East 516 594 37,000  Level Minneapolis Center
11:32PM 43.1303 -91.2997 89° East 518 596 37,000  Level Minneapolis Center
11:33PM 43.1314 -91.1044 89° East 517 595 37,000  Level Minneapolis Center
11:34PM 43.1314 -90.9086 90° East 516 594 37,000  Level Minneapolis Center
11:35PM 43.1328 -90.7117 89° East 518 596 37,000  Level Minneapolis Center
11:36PM 43.1336 -90.5153 90° East 519 597 37,000  Level Minneapolis Center
11:37PM 43.1353 -90.4383 88° East 520 598 37,000  Level Chicago Center
11:38PM 43.1344 -90.2211 90° East 518 596 37,000  Level Chicago Center
11:39PM 43.1336 -90.0231 90° East 520 598 37,000  Level Chicago Center
11:40PM 43.1328 -89.8289 90° East 513 590 37,000  Level Chicago Center
11:41PM 43.1314 -89.6336 90° East 513 590 37,000  Level Chicago Center
11:42PM 43.1314 -89.4383 90° East 511 588 37,000  Level Chicago Center
11:43PM 43.1297 -89.2436 91° East 512 589 37,000  Level Chicago Center
11:44PM 43.1264 -89.0500 91° East 511 588 37,000  Level Chicago Center
11:45PM 43.1244 -88.8556 91° East 513 590 37,000  Level Chicago Center
11:46PM 43.1225 -88.6625 91° East 511 588 37,000  Level Chicago Center
11:47PM 43.1067 -88.4733 96° East 506 582 37,000  Level Chicago Center
11:48PM 43.0767 -88.2858 102° East 507 583 37,000  Level Chicago Center
11:49PM 43.0478 -88.0964 102° East 510 587 37,000  Level Chicago Center
11:50PM 43.0022 -87.8817 106° East 505 581 37,000  Level Chicago Center
11:51PM 42.9739 -87.6922 101° East 509 586 37,000  Level Chicago Center
11:52PM 42.9442 -87.5044 102° East 508 585 37,000  Level Chicago Center
11:53PM 42.9192 -87.3406 102° East 510 587 37,000  Level Chicago Center
11:54PM 42.8889 -87.1517 102° East 513 590 37,000  Level Chicago Center
11:55PM 42.8583 -86.9614 102° East 515 593 37,000  Level Chicago Center
11:56PM 42.8286 -86.7717 102° East 515 593 37,000  Level Chicago Center
11:57PM 42.7964 -86.5825 103° East 516 594 37,000  Level Chicago Center
11:58PM 42.7583 -86.3569 103° East 515 593 37,000 -120 Level Chicago Center
11:59PM 42.7272 -86.1689 103° East 516 594 36,800 -1,140 Descending Chicago Center
12:00AM 42.6958 -85.9825 103° East 515 593 34,800 -2,580 Descending Chicago Center
12:01AM 42.6628 -85.7939 103° East 520 598 31,600 -3,000 Descending Chicago Center
12:02AM 42.6308 -85.6072 103° East 515 593 28,800 -2,640 Descending Chicago Center
12:03AM 42.6000 -85.4300 103° East 492 566 26,300 -2,460 Descending Chicago Center
12:04AM 42.5708 -85.2586 103° East 478 550 23,900 -2,340 Descending Chicago Center
12:05AM 42.5411 -85.0961 104° East 456 525 21,600 -1,500 Descending Chicago Center
12:06AM 42.5125 -84.9375 104° East 440 506 20,900 -1,740 Descending Chicago Center
12:07AM 42.4822 -84.7717 104° East 448 516 18,100 -2,340 Descending Chicago Center
12:08AM 42.4506 -84.5992 104° East 415 478 16,300 -1,800 Descending Cleveland Center
12:09AM 42.4292 -84.4964 106° East 403 464 15,100 -1,500 Descending Cleveland Center
12:10AM 42.4072 -84.3714 103° East 373 429 13,900 -1,380 Descending FAA TRACON SMA TRACON (SMA)
12:10AM 42.3986 -84.3208 103° East 360 414 13,400 -1,080 Descending FAA TRACON SMA TRACON (SMA)
12:10AM 42.3908 -84.2817 105° East 353 406 13,200 -900 Descending FAA TRACON SMA TRACON (SMA)
12:11AM 42.3839 -84.2439 104° East 342 394 12,800 -1,500 Descending FAA TRACON SMA TRACON (SMA)
12:11AM 42.3753 -84.1978 104° East 332 382 12,200 -1,500 Descending FAA TRACON SMA TRACON (SMA)
12:11AM 42.3683 -84.1617 105° East 327 376 11,800 -1,200 Descending FAA TRACON SMA TRACON (SMA)
12:12AM 42.3617 -84.1258 104° East 324 373 11,400 -1,500 Descending FAA TRACON SMA TRACON (SMA)
12:12AM 42.3633 -84.0803 87° East 315 362 10,800 -1,500 Descending FAA TRACON SMA TRACON (SMA)
12:12AM 42.3664 -84.0444 83° East 311 358 10,400 -1,380 Descending FAA TRACON SMA TRACON (SMA)
12:13AM 42.3694 -84.0089 83° East 310 357 9,900 -1,680 Descending FAA TRACON SMA TRACON (SMA)
12:13AM 42.3728 -83.9650 84° East 308 354 9,300 -1,500 Descending FAA TRACON SMA TRACON (SMA)
12:13AM 42.3756 -83.9300 84° East 306 352 8,900 -1,500 Descending FAA TRACON SMA TRACON (SMA)
12:14AM 42.3789 -83.8867 84° East 304 350 8,300 -1,680 Descending FAA TRACON SMA TRACON (SMA)
12:14AM 42.3817 -83.8519 84° East 303 349 7,800 -1,380 Descending FAA TRACON SMA TRACON (SMA)
12:14AM 42.3844 -83.8175 84° East 301 346 7,400 -1,200 Descending FAA TRACON SMA TRACON (SMA)
12:15AM 42.3883 -83.7744 83° East 301 346 7,000 -600 Descending FAA TRACON SMA TRACON (SMA)
12:15AM 42.3914 -83.7400 83° East 300 345 7,000  Level FAA TRACON SMA TRACON (SMA)
12:15AM 42.3961 -83.6897 83° East 296 341 7,000  Level FAA TRACON SMA TRACON (SMA)
12:16AM 42.3994 -83.6564 82° East 294 338 7,000  Level FAA TRACON SMA TRACON (SMA)
12:16AM 42.4047 -83.5981 83° East 291 335 7,000  Level FAA TRACON SMA TRACON (SMA)
12:17AM 42.4078 -83.5606 84° East 260 299 7,000 -300 Level FAA TRACON SMA TRACON (SMA)
12:17AM 42.4106 -83.5308 83° East 261 300 6,800 -1,080 Descending FAA TRACON SMA TRACON (SMA)
12:17AM 42.4136 -83.4931 84° East 270 311 6,300 -1,380 Descending FAA TRACON SMA TRACON (SMA)
12:18AM 42.4164 -83.4625 83° East 267 307 5,900 -1,380 Descending FAA TRACON SMA TRACON (SMA)
12:18AM 42.4122 -83.4378 103° East 268 308 5,500 -1,740 Descending Cleveland Center
12:19AM 42.4261 -83.3692 75° East 251 289 4,200 -1,440 Descending FAA TRACON SMA TRACON (SMA)
12:19AM 42.4256 -83.3403 91° East 305 351 4,000 -300 Descending FAA TRACON SMA TRACON (SMA)
12:19AM 42.4214 -83.3094 100° East 215 247 4,000  Level FAA TRACON SMA TRACON (SMA)
12:20AM 42.4186 -83.2869 99° East 204 235 4,000  Level FAA TRACON SMA TRACON (SMA)
12:20AM 42.4092 -83.2694 126° Southeast 186 214 4,000  Level FAA TRACON SMA TRACON (SMA)
12:20AM 42.3914 -83.2625 164° South 178 205 4,000 -300 Level FAA TRACON SMA TRACON (SMA)
12:21AM 42.3769 -83.2581 167° South 179 206 3,800 -600 Descending FAA TRACON SMA TRACON (SMA)
12:21AM 42.3600 -83.2531 168° South 179 206 3,600 -600 Descending FAA TRACON SMA TRACON (SMA)
12:21AM 42.3417 -83.2494 172° South 178 205 3,400 -660 Descending FAA TRACON SMA TRACON (SMA)
12:22AM 42.3281 -83.2550 197° South 172 198 3,200 -900 Descending FAA TRACON SMA TRACON (SMA)
12:22AM 42.3128 -83.2656 207° Southwest 169 194 2,800 -1,080 Descending FAA TRACON SMA TRACON (SMA)
12:22AM 42.3014 -83.2744 210° Southwest 169 194 2,500 -900 Descending FAA TRACON SMA TRACON (SMA)
12:23AM 42.2856 -83.2856 207° Southwest 167 192 2,200 -900 Descending FAA TRACON SMA TRACON (SMA)
12:23AM 42.2744 -83.2939 209° Southwest 150 173 1,900 -900 Descending FAA TRACON SMA TRACON (SMA)
12:23AM 42.2617 -83.3033 209° Southwest 140 161 1,600 -780 Descending FAA TRACON SMA TRACON (SMA)
12:24AM 42.2519 -83.3106 209° Southwest 137 158 1,400 -600 Descending FAA TRACON SMA TRACON (SMA)